Time;durP1;ratioP1;P1;durP2;ratioP2;P2;SDS_P1;SDS_P2;PMS_P1;PMS_P2;Temp;Humidity;BMP_temperature;BMP_pressure;BME280_temperature;BME280_humidity;BME280_pressure;Samples;Min_cycle;Max_cycle;Signal;HPM_P1;HPM_P2
2021/10/27 00:00:33;;;;;;;17.67;9.75;;;13.80;99.90;;;;;;5033779;28;20028;-82
2021/10/27 00:02:59;;;;;;;17.10;9.98;;;13.80;99.90;;;;;;5037111;28;20032;-82
2021/10/27 00:05:24;;;;;;;20.25;10.25;;;13.90;99.90;;;;;;5035626;28;20022;-81
2021/10/27 00:07:50;;;;;;;16.92;10.05;;;13.80;99.90;;;;;;5041798;28;20036;-82
2021/10/27 00:10:17;;;;;;;15.65;9.48;;;13.90;99.90;;;;;;5036900;28;20052;-82
2021/10/27 00:12:43;;;;;;;20.45;9.63;;;13.90;99.90;;;;;;5044701;28;20060;-82
2021/10/27 00:15:12;;;;;;;18.85;8.75;;;14.00;99.90;;;;;;5033985;28;20475;-82
2021/10/27 00:17:37;;;;;;;16.98;8.30;;;13.90;99.90;;;;;;5033384;28;20029;-81
2021/10/27 00:20:06;;;;;;;18.13;9.57;;;14.00;99.90;;;;;;5034089;28;20025;-82
2021/10/27 00:22:33;;;;;;;22.23;9.27;;;13.90;99.90;;;;;;5033352;28;20382;-82
2021/10/27 00:24:59;;;;;;;16.58;10.35;;;13.90;99.90;;;;;;5033448;28;20028;-82
2021/10/27 00:27:25;;;;;;;21.08;9.07;;;13.90;99.90;;;;;;5033279;28;20048;-82
2021/10/27 00:29:50;;;;;;;16.52;9.32;;;13.90;99.90;;;;;;5031051;28;20458;-81
2021/10/27 00:32:17;;;;;;;12.70;9.18;;;13.90;99.90;;;;;;5032972;28;20049;-83
2021/10/27 00:34:43;;;;;;;16.40;8.82;;;13.90;99.90;;;;;;5033036;28;20037;-81
2021/10/27 00:37:09;;;;;;;22.60;10.43;;;13.90;99.90;;;;;;5032889;28;20021;-82
2021/10/27 00:39:34;;;;;;;13.70;9.43;;;13.90;99.90;;;;;;5033370;28;20103;-81
2021/10/27 00:42:01;;;;;;;16.60;9.55;;;13.90;99.90;;;;;;5033804;28;20470;-81
2021/10/27 00:44:27;;;;;;;15.80;9.48;;;13.80;99.90;;;;;;5038374;28;20446;-82
2021/10/27 00:46:59;;;;;;;17.83;11.07;;;13.80;99.90;;;;;;5033473;28;20448;-81
2021/10/27 00:49:25;;;;;;;19.13;10.68;;;13.80;99.90;;;;;;5032640;28;20022;-81
2021/10/27 00:51:51;;;;;;;20.73;11.05;;;13.80;99.90;;;;;;5032081;28;20033;-81
2021/10/27 00:54:16;;;;;;;28.67;11.77;;;13.80;99.90;;;;;;5033169;28;20117;-82
2021/10/27 00:56:43;;;;;;;20.88;10.82;;;13.70;99.90;;;;;;5032414;28;20021;-81
2021/10/27 00:59:09;;;;;;;20.42;10.93;;;13.70;99.90;;;;;;5032214;28;20039;-82
2021/10/27 01:01:35;;;;;;;26.75;11.73;;;13.70;99.90;;;;;;5032458;28;20068;-82
2021/10/27 01:04:01;;;;;;;20.92;12.35;;;13.70;99.90;;;;;;5032733;28;20021;-81
2021/10/27 01:06:27;;;;;;;29.48;10.30;;;13.60;99.90;;;;;;5032129;28;20501;-81
2021/10/27 01:08:53;;;;;;;14.13;10.52;;;13.70;99.90;;;;;;5033202;28;20085;-82
2021/10/27 01:11:19;;;;;;;17.98;10.50;;;13.70;99.90;;;;;;5033012;28;20026;-81
2021/10/27 01:13:44;;;;;;;19.55;10.70;;;13.70;99.90;;;;;;5031838;28;20366;-80
2021/10/27 01:16:10;;;;;;;15.30;9.75;;;13.70;99.90;;;;;;5032509;28;20470;-81
2021/10/27 01:18:35;;;;;;;16.60;10.35;;;13.70;99.90;;;;;;5032286;28;20021;-81
2021/10/27 01:21:01;;;;;;;17.00;10.52;;;13.70;99.90;;;;;;5031767;28;20013;-82
2021/10/27 01:23:26;;;;;;;14.63;9.23;;;13.70;99.90;;;;;;5032702;28;20049;-80
2021/10/27 01:25:52;;;;;;;18.55;9.98;;;13.70;99.90;;;;;;5033265;28;20500;-81
2021/10/27 01:28:18;;;;;;;17.70;10.88;;;13.70;99.90;;;;;;5034222;28;20032;-81
2021/10/27 01:30:44;;;;;;;16.95;11.05;;;13.70;99.90;;;;;;5032762;28;20112;-81
2021/10/27 01:33:10;;;;;;;18.58;9.80;;;13.70;99.90;;;;;;5032001;28;20049;-80
2021/10/27 01:35:35;;;;;;;19.20;9.95;;;13.80;99.90;;;;;;5032124;28;20377;-82
2021/10/27 01:38:04;;;;;;;14.45;8.68;;;13.70;99.90;;;;;;5032437;28;20033;-80
2021/10/27 01:40:30;;;;;;;19.05;8.68;;;13.80;99.90;;;;;;5034093;28;20021;-81
2021/10/27 01:42:56;;;;;;;14.45;8.45;;;13.70;99.90;;;;;;5034498;28;20029;-81
2021/10/27 01:45:27;;;;;;;17.63;8.60;;;13.80;99.90;;;;;;5032562;28;20033;-81
2021/10/27 01:47:53;;;;;;;18.85;7.70;;;13.70;99.90;;;;;;5019943;28;20030;-81
2021/10/27 01:50:18;;;;;;;16.25;6.90;;;13.80;99.90;;;;;;5030792;28;20373;-81
2021/10/27 01:52:44;;;;;;;14.43;6.55;;;13.80;99.90;;;;;;5032339;28;20069;-82
2021/10/27 01:55:10;;;;;;;14.57;6.18;;;13.70;99.90;;;;;;5031408;28;20021;-82
2021/10/27 01:57:35;;;;;;;8.13;5.38;;;13.70;99.90;;;;;;5032189;28;20029;-81
2021/10/27 02:00:05;;;;;;;14.35;6.75;;;13.70;99.90;;;;;;5036709;28;20157;-82
2021/10/27 02:02:30;;;;;;;11.20;6.20;;;13.70;99.90;;;;;;5039557;28;20022;-81
2021/10/27 02:04:56;;;;;;;12.73;6.32;;;13.70;99.90;;;;;;5033146;28;20029;-81
2021/10/27 02:07:22;;;;;;;16.23;5.70;;;13.60;99.90;;;;;;5032201;28;20017;-81
2021/10/27 02:09:47;;;;;;;10.85;5.88;;;13.70;99.90;;;;;;5041115;28;20021;-82
2021/10/27 02:12:13;;;;;;;15.25;6.47;;;13.70;99.90;;;;;;5039103;28;20037;-80
2021/10/27 02:14:39;;;;;;;9.43;5.50;;;13.70;99.90;;;;;;5033362;28;20021;-82
2021/10/27 02:17:05;;;;;;;11.23;5.25;;;13.60;99.90;;;;;;5034533;28;20037;-82
2021/10/27 02:19:30;;;;;;;18.50;5.55;;;13.60;99.90;;;;;;5035500;28;20025;-81
2021/10/27 02:21:56;;;;;;;11.73;5.70;;;13.60;99.90;;;;;;5035474;28;20028;-81
2021/10/27 02:24:21;;;;;;;14.90;5.40;;;13.60;99.90;;;;;;5033304;28;20024;-81
2021/10/27 02:26:47;;;;;;;19.05;5.40;;;13.50;99.90;;;;;;5032397;28;20414;-81
2021/10/27 02:29:12;;;;;;;11.57;5.30;;;13.50;99.90;;;;;;5031760;28;20508;-81
2021/10/27 02:31:38;;;;;;;15.93;6.47;;;13.50;99.90;;;;;;5022234;28;20109;-82
2021/10/27 02:34:05;;;;;;;16.05;4.68;;;13.50;99.90;;;;;;5025581;28;20060;-81
2021/10/27 02:36:31;;;;;;;10.20;4.60;;;13.50;99.90;;;;;;5030965;28;20096;-80
2021/10/27 02:38:56;;;;;;;23.70;6.72;;;13.50;99.90;;;;;;5031867;28;20048;-81
2021/10/27 02:41:22;;;;;;;10.75;4.22;;;13.60;99.90;;;;;;5031538;28;20068;-81
2021/10/27 02:43:47;;;;;;;11.32;4.60;;;13.60;99.90;;;;;;5031468;28;20028;-82
2021/10/27 02:46:13;;;;;;;11.70;4.50;;;13.60;99.90;;;;;;5031889;28;20033;-82
2021/10/27 02:48:39;;;;;;;12.85;4.22;;;13.60;99.90;;;;;;5031881;28;20293;-81
2021/10/27 02:51:07;;;;;;;10.45;4.88;;;13.70;99.90;;;;;;5032415;28;20420;-81
2021/10/27 02:53:33;;;;;;;8.60;4.00;;;13.60;99.90;;;;;;5035278;28;20053;-82
2021/10/27 02:55:58;;;;;;;9.57;4.15;;;13.70;99.90;;;;;;5036038;28;20022;-82
2021/10/27 02:58:24;;;;;;;10.98;4.30;;;13.70;99.90;;;;;;5035224;28;20030;-81
2021/10/27 03:00:50;;;;;;;14.85;4.50;;;13.70;99.90;;;;;;5035607;28;20124;-81
2021/10/27 03:03:15;;;;;;;11.15;4.85;;;13.70;99.90;;;;;;5035593;28;20025;-81
2021/10/27 03:05:41;;;;;;;12.82;4.28;;;13.70;99.90;;;;;;5034939;28;20363;-82
2021/10/27 03:08:06;;;;;;;11.20;4.13;;;13.70;99.90;;;;;;5036070;28;20130;-81
2021/10/27 03:10:32;;;;;;;9.82;4.70;;;13.70;99.90;;;;;;5035276;28;21438;-82
2021/10/27 03:12:57;;;;;;;14.20;4.35;;;13.70;99.90;;;;;;5034255;28;20523;-80
2021/10/27 03:15:23;;;;;;;8.75;4.10;;;13.70;99.90;;;;;;5034851;28;20477;-81
2021/10/27 03:17:49;;;;;;;8.65;3.67;;;13.70;99.90;;;;;;5038793;28;20024;-80
2021/10/27 03:20:15;;;;;;;8.02;4.70;;;13.70;99.90;;;;;;5038700;28;20030;-81
2021/10/27 03:22:41;;;;;;;9.30;4.45;;;13.80;99.90;;;;;;5034701;28;20128;-81
2021/10/27 03:25:07;;;;;;;15.50;3.55;;;13.80;99.90;;;;;;5034750;28;20031;-81
2021/10/27 03:27:33;;;;;;;8.70;3.58;;;13.80;99.90;;;;;;5035482;28;20033;-81
2021/10/27 03:29:58;;;;;;;12.98;4.55;;;13.80;99.90;;;;;;5042395;28;20021;-82
2021/10/27 03:32:24;;;;;;;13.32;3.90;;;13.80;99.90;;;;;;5037645;28;20053;-81
2021/10/27 03:34:50;;;;;;;14.73;4.82;;;13.80;99.90;;;;;;5042104;28;20025;-82
2021/10/27 03:37:19;;;;;;;7.57;4.15;;;13.80;99.90;;;;;;5034669;28;20032;-81
2021/10/27 03:39:45;;;;;;;9.07;3.70;;;13.80;99.90;;;;;;5033471;28;20029;-79
2021/10/27 03:42:10;;;;;;;11.52;3.95;;;13.80;99.90;;;;;;5034484;28;20079;-80
2021/10/27 03:44:36;;;;;;;7.65;3.72;;;13.80;99.90;;;;;;5033900;28;20485;-80
2021/10/27 03:47:01;;;;;;;11.93;4.20;;;13.80;99.90;;;;;;5033595;28;20026;-81
2021/10/27 03:49:28;;;;;;;11.70;3.95;;;13.80;99.90;;;;;;5034065;28;20021;-80
2021/10/27 03:51:53;;;;;;;18.15;4.07;;;13.80;99.90;;;;;;5034029;28;20026;-81
2021/10/27 03:54:19;;;;;;;14.52;3.95;;;13.90;99.90;;;;;;5033295;28;20037;-80
2021/10/27 03:56:45;;;;;;;9.43;3.95;;;13.90;99.90;;;;;;5033939;28;20040;-80
2021/10/27 03:59:11;;;;;;;15.52;4.10;;;13.90;99.90;;;;;;5033689;28;20025;-80
2021/10/27 04:01:37;;;;;;;10.05;3.38;;;13.80;99.90;;;;;;5032793;28;20411;-81
2021/10/27 04:04:03;;;;;;;8.93;3.33;;;14.30;99.90;;;;;;5033764;28;20167;-80
2021/10/27 04:06:28;;;;;;;7.25;3.13;;;13.80;99.90;;;;;;5033457;28;20029;-80
2021/10/27 04:08:54;;;;;;;11.80;4.25;;;13.80;99.90;;;;;;5032917;28;20080;-80
2021/10/27 04:11:19;;;;;;;9.98;3.95;;;13.80;99.90;;;;;;5033311;28;20386;-79
2021/10/27 04:13:45;;;;;;;14.50;3.85;;;13.90;99.90;;;;;;5033267;28;20066;-80
2021/10/27 04:16:11;;;;;;;12.55;3.90;;;13.90;99.90;;;;;;5033146;28;20029;-81
2021/10/27 04:18:36;;;;;;;10.52;3.92;;;13.90;99.90;;;;;;5033464;28;20037;-80
2021/10/27 04:21:02;;;;;;;13.73;4.13;;;13.80;99.90;;;;;;5033566;28;20022;-82
2021/10/27 04:23:28;;;;;;;10.88;4.63;;;13.80;99.90;;;;;;5033522;28;20056;-79
2021/10/27 04:25:53;;;;;;;14.75;4.10;;;13.80;99.90;;;;;;5034090;28;20093;-79
2021/10/27 04:28:19;;;;;;;13.98;4.00;;;13.80;99.90;;;;;;5033455;28;20048;-79
2021/10/27 04:30:45;;;;;;;10.05;3.90;;;13.80;99.90;;;;;;5032835;28;20040;-80
2021/10/27 04:33:21;;;;;;;16.15;4.10;;;13.80;99.90;;;;;;5044822;28;20076;-79
2021/10/27 04:35:48;;;;;;;12.20;4.13;;;13.80;99.90;;;;;;5043297;28;20118;-80
2021/10/27 04:38:16;;;;;;;8.00;4.00;;;13.80;99.90;;;;;;5033287;28;20036;-79
2021/10/27 04:40:43;;;;;;;10.63;3.83;;;13.80;99.90;;;;;;5032977;28;20029;-81
2021/10/27 04:43:09;;;;;;;10.88;4.97;;;13.70;99.90;;;;;;5033279;28;20129;-80
2021/10/27 04:45:36;;;;;;;12.27;4.93;;;13.70;99.90;;;;;;5034244;28;20413;-78
2021/10/27 04:48:02;;;;;;;9.35;3.85;;;13.80;99.90;;;;;;5034991;28;20104;-80
2021/10/27 04:50:27;;;;;;;6.70;4.20;;;13.70;99.90;;;;;;5032249;28;20014;-80
2021/10/27 04:52:53;;;;;;;7.13;4.22;;;13.80;99.90;;;;;;5032872;28;20050;-80
2021/10/27 04:55:19;;;;;;;9.50;4.38;;;13.80;99.90;;;;;;5032540;28;20014;-80
2021/10/27 04:57:45;;;;;;;13.45;4.30;;;13.60;99.90;;;;;;5032451;28;20026;-82
2021/10/27 05:00:11;;;;;;;9.48;4.38;;;13.80;99.90;;;;;;5032892;28;20026;-80
2021/10/27 05:02:37;;;;;;;14.70;4.50;;;13.80;99.90;;;;;;5032297;28;20433;-79
2021/10/27 05:05:02;;;;;;;12.23;4.10;;;13.80;99.90;;;;;;5032010;28;20022;-80
2021/10/27 05:07:29;;;;;;;10.65;4.28;;;13.80;99.90;;;;;;5032327;28;20025;-80
2021/10/27 05:09:55;;;;;;;11.50;4.15;;;13.80;99.90;;;;;;5031391;28;20049;-80
2021/10/27 05:12:21;;;;;;;10.70;3.72;;;13.70;99.90;;;;;;5030201;28;20034;-80
2021/10/27 05:14:47;;;;;;;9.10;4.45;;;13.80;99.90;;;;;;5030897;28;20031;-80
2021/10/27 05:17:13;;;;;;;9.38;4.30;;;13.70;99.90;;;;;;5030600;28;20393;-81
2021/10/27 05:19:43;;;;;;;9.88;3.92;;;13.70;99.90;;;;;;5030312;28;20030;-80
2021/10/27 05:22:09;;;;;;;;;;;14.40;99.90;;;;;;5032876;28;20033;-81
2021/10/27 05:24:35;;;;;;;14.32;4.82;;;13.80;99.90;;;;;;5031291;28;19999;-81
2021/10/27 05:27:02;;;;;;;8.95;3.85;;;13.80;99.90;;;;;;5031310;28;20022;-80
2021/10/27 05:29:28;;;;;;;7.05;3.80;;;13.70;99.90;;;;;;5029911;28;20021;-81
2021/10/27 05:31:53;;;;;;;10.52;3.97;;;13.80;99.90;;;;;;5034224;28;20036;-80
2021/10/27 05:34:19;;;;;;;8.13;3.78;;;13.70;99.90;;;;;;5031910;28;20028;-79
2021/10/27 05:36:45;;;;;;;8.63;3.53;;;13.80;99.90;;;;;;5033837;28;20052;-79
2021/10/27 05:39:13;;;;;;;7.53;3.63;;;13.80;99.90;;;;;;5031740;28;20034;-79
2021/10/27 05:41:47;;;;;;;6.65;3.65;;;13.80;99.90;;;;;;5031069;28;20029;-80
2021/10/27 05:44:13;;;;;;;20.13;6.20;;;13.80;99.90;;;;;;5031349;28;20064;-80
2021/10/27 05:46:42;;;;;;;6.18;3.53;;;13.80;99.90;;;;;;5030546;28;20365;-80
2021/10/27 05:49:20;;;;;;;14.98;4.03;;;13.80;99.90;;;;;;5030521;28;20036;-80
2021/10/27 05:51:52;;;;;;;7.45;3.40;;;13.80;99.90;;;;;;5031610;28;20035;-81
2021/10/27 05:57:03;;;;;;;8.38;4.05;;;13.80;99.90;;;;;;5031856;28;20028;-80
2021/10/27 05:59:28;;;;;;;14.70;4.18;;;13.90;99.90;;;;;;5028899;28;20385;-80
2021/10/27 06:01:54;;;;;;;13.10;4.13;;;13.80;99.90;;;;;;5030819;28;20108;-80
2021/10/27 06:04:20;;;;;;;8.43;3.80;;;13.80;99.90;;;;;;5031337;28;20021;-81
2021/10/27 06:06:46;;;;;;;7.53;3.85;;;13.80;99.90;;;;;;5031577;28;20029;-80
2021/10/27 06:09:12;;;;;;;7.47;3.90;;;13.80;99.90;;;;;;5030552;28;20022;-81
2021/10/27 06:11:38;;;;;;;5.95;4.55;;;13.80;99.90;;;;;;5031067;28;20042;-80
2021/10/27 06:14:06;;;;;;;7.10;3.67;;;13.80;99.90;;;;;;5031572;28;20406;-80
2021/10/27 06:16:32;;;;;;;14.10;4.65;;;13.80;99.90;;;;;;5030033;28;20472;-80
2021/10/27 06:18:57;;;;;;;13.15;4.07;;;13.70;99.90;;;;;;5031119;28;20029;-80
2021/10/27 06:21:26;;;;;;;12.77;6.85;;;13.80;99.90;;;;;;5030958;28;20017;-80
2021/10/27 06:23:52;;;;;;;12.43;4.93;;;13.70;99.90;;;;;;5030852;28;20359;-81
2021/10/27 06:26:19;;;;;;;13.30;4.75;;;13.80;99.90;;;;;;5030305;28;20022;-81
2021/10/27 06:29:08;;;;;;;9.77;4.45;;;13.70;99.90;;;;;;5034110;28;20026;-80
2021/10/27 06:31:45;;;;;;;10.57;4.95;;;13.70;99.90;;;;;;5034040;28;20032;-81
2021/10/27 06:45:56;;;;;;;13.98;6.00;;;13.70;99.90;;;;;;5035122;28;20033;-80
2021/10/27 06:47:45;;;;;;;10.60;4.57;;;13.60;99.90;;;;;;5034004;28;20117;-80
2021/10/27 06:50:10;;;;;;;9.18;4.60;;;13.70;99.90;;;;;;5033933;28;20021;-81
2021/10/27 06:52:36;;;;;;;11.70;4.70;;;13.70;99.90;;;;;;5034515;28;20038;-82
2021/10/27 06:55:02;;;;;;;10.60;5.32;;;13.70;99.90;;;;;;5036376;28;20029;-84
2021/10/27 06:57:28;;;;;;;11.15;5.50;;;13.70;99.90;;;;;;5033025;28;20029;-84
2021/10/27 07:00:14;;;;;;;10.63;4.60;;;13.70;99.90;;;;;;5037747;28;20025;-84
2021/10/27 07:16:19;;;;;;;15.02;6.10;;;13.70;99.90;;;;;;5035351;28;20123;-84
2021/10/27 07:18:45;;;;;;;8.63;5.80;;;13.80;99.90;;;;;;5036440;28;20033;-84
2021/10/27 07:21:11;;;;;;;14.50;6.47;;;13.70;99.90;;;;;;5037123;28;20021;-83
2021/10/27 07:23:39;;;;;;;8.23;5.15;;;13.70;99.90;;;;;;5036804;28;20013;-82
2021/10/27 07:26:05;;;;;;;11.68;5.43;;;13.80;99.90;;;;;;5040158;28;20382;-86
2021/10/27 07:28:31;;;;;;;12.45;5.20;;;13.80;99.90;;;;;;5035950;28;20006;-87
2021/10/27 07:30:58;;;;;;;9.27;6.43;;;13.80;99.90;;;;;;5037722;28;20017;-86
2021/10/27 07:33:26;;;;;;;14.05;5.72;;;13.80;99.90;;;;;;5036995;28;20061;-88
2021/10/27 07:35:57;;;;;;;16.05;6.25;;;13.90;99.90;;;;;;5052888;28;20081;-88
2021/10/27 07:41:10;;;;;;;9.15;6.18;;;13.90;99.90;;;;;;5056483;28;20063;-87
2021/10/27 07:43:40;;;;;;;12.38;5.32;;;13.90;99.90;;;;;;5039061;28;20458;-86
2021/10/27 07:46:06;;;;;;;14.52;5.85;;;13.90;99.90;;;;;;5037151;28;20029;-86
2021/10/27 07:48:32;;;;;;;8.90;5.22;;;14.00;99.90;;;;;;5037760;28;20040;-87
2021/10/27 07:50:58;;;;;;;10.30;5.88;;;14.90;99.90;;;;;;5041004;28;20048;-81
2021/10/27 07:53:27;;;;;;;9.82;5.93;;;14.00;99.90;;;;;;5035717;28;20486;-83
2021/10/27 07:55:53;;;;;;;15.88;5.43;;;14.00;99.90;;;;;;5040519;28;20115;-80
2021/10/27 07:58:24;;;;;;;10.43;5.63;;;14.00;99.90;;;;;;5035999;28;20033;-88
2021/10/27 08:00:50;;;;;;;;;;;14.00;99.90;;;;;;5038022;28;20025;-88
2021/10/27 08:03:16;;;;;;;9.48;5.00;;;13.90;99.90;;;;;;5037654;28;19909;-79
2021/10/27 08:05:43;;;;;;;7.57;5.38;;;13.90;99.90;;;;;;5035409;28;20363;-77
2021/10/27 08:08:14;;;;;;;8.60;5.20;;;14.00;99.90;;;;;;5036097;28;20058;-85
2021/10/27 08:10:41;;;;;;;11.63;5.40;;;14.00;99.90;;;;;;5022308;28;20079;-76
2021/10/27 08:13:07;;;;;;;13.07;5.38;;;14.00;99.90;;;;;;5034931;28;20038;-86
2021/10/27 08:15:33;;;;;;;10.68;5.55;;;14.00;99.90;;;;;;5020304;28;20026;-81
2021/10/27 08:18:00;;;;;;;11.02;5.35;;;14.00;99.90;;;;;;5023180;28;20037;-86
2021/10/27 08:20:27;;;;;;;9.38;5.10;;;14.00;99.90;;;;;;5030768;28;20067;-84
2021/10/27 08:23:01;;;;;;;11.30;5.78;;;14.00;99.90;;;;;;5020107;28;20527;-86
2021/10/27 08:25:31;;;;;;;12.48;5.55;;;14.00;99.90;;;;;;5026365;28;20117;-87
2021/10/27 08:27:58;;;;;;;;;;;14.00;99.90;;;;;;5022187;28;20033;-86
2021/10/27 08:30:33;;;;;;;13.65;5.78;;;14.00;99.90;;;;;;5030034;28;19976;-87
2021/10/27 08:33:01;;;;;;;11.75;5.15;;;14.10;99.90;;;;;;5034014;28;20057;-83
2021/10/27 08:35:30;;;;;;;6.80;5.80;;;14.10;99.90;;;;;;5033555;28;20068;-82
2021/10/27 08:37:57;;;;;;;7.30;5.90;;;14.20;99.90;;;;;;5028053;28;20073;-84
2021/10/27 08:40:23;;;;;;;7.85;5.07;;;14.30;99.90;;;;;;5026775;28;20397;-83
2021/10/27 08:42:49;;;;;;;9.80;4.93;;;14.30;99.90;;;;;;5029472;28;20025;-83
2021/10/27 08:45:15;;;;;;;9.23;5.28;;;14.40;99.90;;;;;;5026655;28;20500;-85
2021/10/27 08:47:42;;;;;;;13.82;5.38;;;14.50;99.90;;;;;;5026571;28;20024;-83
2021/10/27 08:50:11;;;;;;;8.52;5.15;;;14.60;99.90;;;;;;5022742;28;20034;-85
2021/10/27 08:52:38;;;;;;;5.10;4.47;;;14.70;99.90;;;;;;5026789;28;20124;-85
2021/10/27 08:55:04;;;;;;;9.45;4.80;;;14.90;99.90;;;;;;5027264;28;20409;-83
2021/10/27 08:57:30;;;;;;;10.38;5.07;;;15.00;99.90;;;;;;5021128;28;20497;-85
2021/10/27 09:36:03;;;;;;;7.65;4.40;;;15.60;99.90;;;;;;5027243;28;20120;-81
2021/10/27 09:55:49;;;;;;;6.13;5.05;;;16.00;99.90;;;;;;5025031;28;20037;-83
2021/10/27 10:04:11;;;;;;;10.45;6.18;;;15.90;99.90;;;;;;5032824;28;20032;-79
2021/10/27 10:06:38;;;;;;;9.52;5.60;;;15.90;99.90;;;;;;5031832;28;20033;-81
2021/10/27 10:09:06;;;;;;;6.55;5.88;;;16.00;99.90;;;;;;5028158;28;20417;-82
2021/10/27 10:11:32;;;;;;;10.40;4.93;;;16.00;99.90;;;;;;5027513;28;20072;-81
2021/10/27 10:14:04;;;;;;;6.18;5.28;;;16.10;99.90;;;;;;5022672;28;20033;-82
2021/10/27 10:16:32;;;;;;;10.85;5.00;;;16.00;99.90;;;;;;5024278;28;20462;-82
2021/10/27 10:19:05;;;;;;;7.68;4.80;;;16.00;99.90;;;;;;5033572;28;20173;-81
2021/10/27 10:21:32;;;;;;;8.52;4.75;;;16.10;99.90;;;;;;5022787;28;20018;-83
2021/10/27 10:24:21;;;;;;;10.30;4.82;;;16.00;99.90;;;;;;5034369;28;20032;-84
2021/10/27 10:26:49;;;;;;;6.30;4.18;;;16.10;99.90;;;;;;5020085;28;20022;-84
2021/10/27 10:29:38;;;;;;;7.13;4.53;;;16.10;99.90;;;;;;5024986;28;20029;-84
2021/10/27 10:32:23;;;;;;;7.30;4.78;;;16.20;99.90;;;;;;5030796;28;20041;-84
2021/10/27 10:35:14;;;;;;;7.68;4.10;;;16.10;99.90;;;;;;5031720;28;20022;-84
2021/10/27 10:40:37;;;;;;;5.60;3.83;;;16.20;99.90;;;;;;5040592;28;20037;-83
2021/10/27 10:43:23;;;;;;;7.22;4.13;;;16.20;99.90;;;;;;5030359;28;20087;-79
2021/10/27 10:57:35;;;;;;;7.95;4.28;;;16.30;99.90;;;;;;5035655;28;20108;-82
2021/10/27 11:23:51;;;;;;;10.23;5.95;;;16.20;99.90;;;;;;5029000;28;20436;-82
2021/10/27 11:37:54;;;;;;;11.45;6.82;;;16.70;99.90;;;;;;5020243;28;20390;-81
2021/10/27 11:40:24;;;;;;;10.27;6.88;;;16.80;99.90;;;;;;5020290;28;20413;-81
2021/10/27 11:42:53;;;;;;;13.15;7.93;;;16.60;99.90;;;;;;5032084;28;20065;-81
2021/10/27 11:48:01;;;;;;;10.38;7.55;;;16.40;99.90;;;;;;5023826;28;20053;-81
2021/10/27 11:50:38;;;;;;;9.68;7.60;;;16.30;99.90;;;;;;5032478;28;20470;-82
2021/10/27 11:53:06;;;;;;;14.35;7.85;;;16.20;99.90;;;;;;5017964;28;20048;-82
2021/10/27 11:55:34;;;;;;;11.48;7.32;;;16.20;99.90;;;;;;5021247;28;20026;-82
2021/10/27 11:58:01;;;;;;;12.23;7.72;;;16.20;99.90;;;;;;5025840;28;20030;-81
2021/10/27 12:00:37;;;;;;;10.57;6.68;;;16.20;99.90;;;;;;5025051;28;20029;-81
2021/10/27 12:03:14;;;;;;;14.73;6.97;;;16.30;99.90;;;;;;5024825;28;20120;-81
2021/10/27 12:05:58;;;;;;;8.15;6.95;;;16.30;99.90;;;;;;5022179;28;20478;-81
2021/10/27 12:11:10;;;;;;;7.22;6.53;;;16.40;99.90;;;;;;5024306;28;20017;-81
2021/10/27 12:13:49;;;;;;;7.85;6.60;;;16.40;99.90;;;;;;5024604;28;20038;-83
2021/10/27 12:16:48;;;;;;;10.48;7.00;;;16.40;99.90;;;;;;5026106;28;20029;-83
2021/10/27 12:19:17;;;;;;;10.35;6.93;;;16.40;99.90;;;;;;5029901;28;20469;-81
2021/10/27 12:22:00;;;;;;;9.48;7.13;;;16.40;99.90;;;;;;5023303;28;20523;-82
2021/10/27 12:24:29;;;;;;;10.77;6.72;;;16.50;99.90;;;;;;5022730;28;20030;-82
2021/10/27 12:27:08;;;;;;;8.70;6.88;;;16.50;99.90;;;;;;5025005;28;20033;-81
2021/10/27 12:29:37;;;;;;;7.57;6.55;;;16.60;99.90;;;;;;5025339;28;20107;-81
2021/10/27 12:32:07;;;;;;;8.73;6.63;;;16.70;99.90;;;;;;5028903;28;20116;-82
2021/10/27 12:34:49;;;;;;;12.07;6.53;;;16.80;99.90;;;;;;5025449;28;20076;-81
2021/10/27 12:37:40;;;;;;;7.55;6.35;;;16.80;99.90;;;;;;5028033;28;20293;-81
2021/10/27 12:40:41;;;;;;;10.23;6.70;;;16.80;99.90;;;;;;5028198;28;20033;-83
2021/10/27 12:43:12;;;;;;;8.88;6.60;;;16.80;99.90;;;;;;5018140;28;20030;-82
2021/10/27 12:45:40;;;;;;;;;;;16.80;99.90;;;;;;5027329;28;20105;-82
2021/10/27 12:48:09;;;;;;;15.77;6.47;;;16.80;99.90;;;;;;5028032;28;20311;-82
2021/10/27 12:50:35;;;;;;;8.98;7.03;;;16.80;99.90;;;;;;5026956;28;20033;-81
2021/10/27 12:53:03;;;;;;;9.38;5.72;;;16.80;99.90;;;;;;5030135;28;20100;-80
2021/10/27 12:55:32;;;;;;;10.30;6.25;;;16.70;99.90;;;;;;5026761;28;20025;-82
2021/10/27 12:58:15;;;;;;;11.27;6.20;;;16.70;99.90;;;;;;5024986;28;20108;-82
2021/10/27 13:00:54;;;;;;;10.88;5.93;;;16.60;99.90;;;;;;5027170;28;20036;-83
2021/10/27 13:03:31;;;;;;;6.45;5.68;;;16.60;99.90;;;;;;5030472;28;20029;-81
2021/10/27 13:06:26;;;;;;;8.70;5.80;;;16.60;99.90;;;;;;5036045;28;20045;-82
2021/10/27 13:14:49;;;;;;;9.93;6.30;;;16.70;99.90;;;;;;5031484;28;20037;-81
2021/10/27 13:22:28;;;;;;;10.88;5.93;;;16.50;99.90;;;;;;5032265;28;20565;-76
2021/10/27 13:30:33;;;;;;;9.65;6.47;;;16.40;99.90;;;;;;5002940;28;20566;-76
2021/10/27 13:33:02;;;;;;;9.40;6.63;;;16.40;99.90;;;;;;5029562;28;20522;-76
2021/10/27 13:35:28;;;;;;;6.50;5.90;;;16.40;99.90;;;;;;5031517;28;20053;-77
2021/10/27 13:37:54;;;;;;;8.35;7.15;;;16.30;99.90;;;;;;5031800;28;20029;-79
2021/10/27 13:40:20;;;;;;;10.45;6.35;;;16.30;99.90;;;;;;5031487;28;20029;-76
2021/10/27 13:42:56;;;;;;;7.18;6.05;;;16.10;99.90;;;;;;5032061;28;20462;-79
2021/10/27 13:45:36;;;;;;;15.05;7.00;;;16.10;99.90;;;;;;5031749;28;20349;-78
2021/10/27 14:09:53;;;;;;;14.00;7.10;;;16.30;99.90;;;;;;5032348;28;20109;-78
2021/10/27 14:14:58;;;;;;;9.50;6.22;;;16.20;99.90;;;;;;5031692;28;20084;-77
2021/10/27 14:22:51;;;;;;;8.10;6.57;;;16.40;99.90;;;;;;5032150;28;20446;-77
2021/10/27 15:19:48;;;;;;;10.25;7.20;;;15.60;99.90;;;;;;5023221;28;20036;-77
2021/10/27 15:22:24;;;;;;;9.35;7.85;;;15.60;99.90;;;;;;5034618;28;20032;-77
2021/10/27 15:27:49;;;;;;;10.90;8.00;;;15.40;99.90;;;;;;5035352;28;20114;-76
2021/10/27 15:30:40;;;;;;;10.18;7.68;;;15.40;99.90;;;;;;5033975;28;20052;-77
2021/10/27 15:41:23;;;;;;;13.65;8.00;;;15.10;99.90;;;;;;5034269;28;20552;-76
2021/10/27 15:52:06;;;;;;;11.65;8.05;;;14.70;99.90;;;;;;5030622;28;20036;-77
2021/10/27 15:54:38;;;;;;;12.95;8.38;;;14.60;99.90;;;;;;5033562;28;20124;-77
2021/10/27 15:57:04;;;;;;;10.65;8.38;;;15.50;99.90;;;;;;5034620;28;20030;-78
2021/10/27 15:59:30;;;;;;;12.20;8.68;;;14.50;99.90;;;;;;5033360;28;20103;-78
2021/10/27 16:01:56;;;;;;;15.85;9.63;;;14.40;99.90;;;;;;5033712;28;20021;-79
2021/10/27 16:04:22;;;;;;;12.07;8.70;;;14.30;99.90;;;;;;5033532;28;20031;-78
2021/10/27 16:06:55;;;;;;;13.60;9.10;;;14.20;99.90;;;;;;5031765;28;20026;-78
2021/10/27 16:09:27;;;;;;;11.57;8.45;;;14.20;99.90;;;;;;5032941;28;20053;-79
2021/10/27 16:11:52;;;;;;;11.05;9.93;;;14.10;99.90;;;;;;5033344;28;20021;-79
2021/10/27 16:14:22;;;;;;;13.27;9.07;;;14.00;99.90;;;;;;5033582;28;20030;-78
2021/10/27 16:16:47;;;;;;;14.73;9.20;;;13.90;99.90;;;;;;5033835;28;20104;-79
2021/10/27 16:19:13;;;;;;;14.00;9.20;;;13.90;99.90;;;;;;5034302;28;20446;-80
2021/10/27 16:21:39;;;;;;;12.65;8.88;;;13.80;99.90;;;;;;5033214;28;20649;-78
2021/10/27 16:24:05;;;;;;;11.30;8.82;;;13.70;99.90;;;;;;5033428;28;20385;-78
2021/10/27 16:26:30;;;;;;;9.65;8.63;;;13.60;99.90;;;;;;5032730;28;20448;-79
2021/10/27 16:28:56;;;;;;;21.75;8.88;;;13.50;99.90;;;;;;5033861;28;20025;-78
2021/10/27 16:31:22;;;;;;;9.60;8.65;;;13.50;99.90;;;;;;5033492;28;20461;-78
2021/10/27 16:33:48;;;;;;;12.90;9.52;;;13.40;99.90;;;;;;5033003;28;20102;-79
2021/10/27 16:36:14;;;;;;;15.02;9.02;;;13.40;99.90;;;;;;5031935;28;20140;-79
2021/10/27 16:38:41;;;;;;;18.42;9.30;;;13.30;99.90;;;;;;5033647;28;20033;-79
2021/10/27 16:41:07;;;;;;;13.60;8.73;;;13.30;99.90;;;;;;5032644;28;20489;-80
2021/10/27 16:43:33;;;;;;;14.98;10.05;;;13.30;99.90;;;;;;5032776;28;20149;-75
2021/10/27 16:45:59;;;;;;;13.95;9.30;;;13.20;99.90;;;;;;5033090;28;20022;-77
2021/10/27 16:48:26;;;;;;;11.45;9.25;;;13.10;99.90;;;;;;5032622;28;20462;-80
2021/10/27 16:50:52;;;;;;;10.40;8.60;;;13.10;99.90;;;;;;5033351;28;20482;-78
2021/10/27 16:53:20;;;;;;;14.07;9.55;;;13.00;99.90;;;;;;5035145;28;20025;-80
2021/10/27 16:55:47;;;;;;;17.17;9.88;;;13.00;99.90;;;;;;5032931;28;20108;-77
2021/10/27 16:58:14;;;;;;;13.38;9.60;;;13.00;99.90;;;;;;5032415;28;20381;-79
2021/10/27 17:00:40;;;;;;;20.92;13.52;;;13.20;99.90;;;;;;5034725;28;20603;-78
2021/10/27 17:03:06;;;;;;;20.27;16.63;;;12.90;99.90;;;;;;5035987;28;20496;-78
2021/10/27 17:05:35;;;;;;;23.50;15.73;;;12.80;99.90;;;;;;5031721;28;20030;-78
2021/10/27 17:08:02;;;;;;;20.63;16.20;;;12.80;99.90;;;;;;5034563;28;20100;-79
2021/10/27 17:10:27;;;;;;;13.55;12.23;;;12.70;99.90;;;;;;5035070;28;20025;-80